Burlington, CO (80807)

1:12 PM MDT on August 30, 2016 (GMT -0600)
Kit Carson County | | Change Station

Elev 4216 ft 39.24 °N, 102.28 °W | Updated 19 minutes ago

Mostly Cloudy
Mostly Cloudy
76 °F
Feels Like 76 °F
N
12
Wind Variable Wind from SSE

Today
High -- | Low -- °F
--% Chance of Precip.
Yesterday
High -- | Low -- °F
Precip. -- in
Pressure 30.14 in
Visibility 10.0 miles
Clouds Mostly Cloudy 3000 ft
Mostly Cloudy 4400 ft
Dew Point 57 °F
Humidity 52%
Rainfall 0.00 in
Snow Depth Not available.
6:16 AM 7:21 PM
Waning Crescent, 3% visible
METAR KITR 301853Z AUTO 15010KT 10SM BKN030 BKN044 24/14 A3028 RMK AO2 LTG DSNT W SLP207 T02440139
Pressure 30.14 in
Visibility 10.0 miles
Clouds Mostly Cloudy 3000 ft
Mostly Cloudy 4400 ft
Dew Point 57 °F
Humidity 52%
Rainfall 0.00 in
Snow Depth Not available.
6:16 AM 7:21 PM
Waning Crescent, 3% visible
METAR KITR 301853Z AUTO 15010KT 10SM BKN030 BKN044 24/14 A3028 RMK AO2 LTG DSNT W SLP207 T02440139

10-Day Weather Forecast

Almanac

Astronomy

Aug. 30, 2016 Rise Set
Actual Time
Civil Twilight
Nautical Twilight
Astronomical Twilight
Moon
Length of Visible Light
Length of Day
Tomorrow will be .
, % of the Moon is Illuminated

Today's Extremes

State Highs State Lows

Community

WunderPhotos

Upload Photos

1,935,882 photos uploaded!

WunderBlog® & News

Nearby

Air Quality

  Air Quality AQ Index Pollutant
Not available.

Snow Depth

Station Depth Elevation

Earthquake Activity

City Distance Mag. Time & Date
Minimum magnitude displayed is 2.5.

Coastal Water Temperatures

Place Temperature

Stations

Nearby Weather Stations

Station Location Temp. Windchill Dew Point Humidity Wind Precip. Elev Updated Type
                   

Watches & Warnings

There are currently no watches in effect.